createdAt,value
2018-04-07T14:48:04.435Z,37.50
2018-04-07T14:48:42.448Z,38.40
2018-04-07T14:49:16.009Z,37.10
2018-04-07T14:50:50.423Z,35.10
2018-04-07T14:51:59.026Z,35.00
2018-04-07T14:53:07.779Z,33.80
2018-04-07T14:54:16.499Z,33.50
2018-04-07T14:55:27.307Z,34.10
2018-04-07T14:56:36.163Z,33.90
2018-04-07T14:57:44.935Z,33.90
2018-04-07T14:58:53.623Z,34.60
2018-04-07T15:00:02.526Z,35.40
2018-04-07T15:01:11.892Z,35.20
2018-04-07T15:02:20.709Z,35.10
2018-04-07T15:03:30.390Z,34.70
2018-04-07T15:04:39.325Z,34.70
2018-04-07T15:05:52.173Z,34.40
2018-04-07T15:07:01.053Z,34.90
2018-04-07T15:08:10.488Z,35.30
2018-04-07T15:09:19.183Z,35.30
2018-04-07T15:10:28.071Z,35.10
2018-04-07T15:11:36.810Z,34.60
2018-04-07T15:12:50.417Z,35.20
2018-04-07T15:14:00.084Z,36.50
2018-04-07T15:15:13.015Z,35.90
2018-04-07T15:16:23.800Z,35.60
2018-04-07T15:17:33.677Z,35.50
2018-04-07T15:18:43.205Z,35.00
2018-04-07T15:19:52.786Z,34.60
2018-04-07T15:21:01.700Z,34.50
2018-04-07T15:22:10.347Z,34.40
2018-04-07T15:23:20.050Z,34.50
2018-04-07T15:24:29.463Z,34.30
2018-04-07T15:25:38.067Z,34.30
2018-04-07T15:26:47.790Z,35.10
2018-04-07T15:27:56.485Z,35.10
2018-04-07T15:29:06.146Z,34.60
2018-04-07T15:30:15.011Z,34.50
2018-04-07T15:31:23.958Z,34.10
2018-04-07T15:32:32.637Z,34.30
2018-04-07T15:33:42.306Z,34.10
2018-04-07T15:34:55.946Z,35.00
2018-04-07T15:36:04.915Z,34.80
2018-04-07T15:37:13.650Z,34.50
2018-04-07T15:38:22.397Z,35.60
2018-04-07T15:39:32.177Z,36.50
2018-04-07T15:40:41.663Z,37.90
2018-04-07T15:41:50.378Z,37.90
2018-04-07T15:42:59.203Z,38.40
2018-04-07T15:44:07.959Z,38.50
2018-04-07T15:45:16.809Z,39.00
2018-04-07T15:46:26.301Z,39.30
2018-04-07T15:47:35.340Z,39.30
2018-04-07T15:48:45.784Z,39.70
2018-04-07T15:49:56.657Z,39.70
2018-04-07T15:51:10.677Z,39.60
2018-04-07T15:52:20.252Z,39.60
2018-04-07T15:53:29.381Z,39.90
2018-04-07T15:54:38.548Z,40.30
2018-04-07T15:55:48.484Z,40.60
2018-04-07T15:56:57.388Z,40.70
2018-04-07T15:58:11.534Z,40.80
2018-04-07T15:59:20.296Z,41.00
2018-04-07T16:00:29.127Z,40.90
2018-04-07T16:01:42.322Z,40.80
2018-04-07T16:02:51.088Z,40.90
2018-04-07T16:04:00.658Z,41.40
2018-04-07T16:05:15.545Z,41.40
2018-04-07T16:06:24.284Z,41.10
2018-04-07T16:07:38.056Z,42.00
2018-04-07T16:08:47.861Z,41.40
2018-04-07T16:09:56.639Z,41.40
2018-04-07T16:11:05.707Z,41.30
2018-04-07T16:12:15.482Z,41.30
2018-04-07T16:13:28.650Z,41.70
2018-04-07T16:14:37.620Z,41.80
2018-04-07T16:15:47.458Z,42.00
2018-04-07T16:16:56.514Z,42.20
2018-04-07T16:18:05.368Z,42.50
2018-04-07T16:19:14.423Z,42.00
2018-04-07T16:20:23.201Z,42.20
2018-04-07T16:21:32.184Z,42.50
2018-04-07T16:22:41.029Z,42.50
2018-04-07T16:23:49.780Z,42.50
2018-04-07T16:24:58.624Z,42.80
2018-04-07T16:26:07.272Z,42.60
2018-04-07T16:27:16.121Z,43.50
2018-04-07T16:28:25.134Z,43.00
2018-04-07T16:29:34.160Z,43.20
2018-04-07T16:30:43.141Z,43.50
2018-04-07T16:31:52.081Z,43.70
2018-04-07T16:33:02.366Z,44.20
2018-04-07T16:34:22.633Z,44.10
2018-04-07T16:35:31.400Z,44.60
2018-04-07T16:36:40.355Z,44.90
2018-04-07T16:37:49.363Z,45.00
2018-04-07T16:38:58.178Z,44.90
2018-04-07T16:40:07.774Z,45.40
2018-04-07T16:41:16.966Z,45.40
2018-04-07T16:42:26.376Z,45.70
2018-04-07T16:43:35.237Z,45.70
2018-04-07T16:44:44.089Z,46.00
2018-04-07T16:45:52.954Z,46.40
2018-04-07T16:47:01.827Z,45.90
2018-04-07T16:48:10.579Z,46.50
2018-04-07T16:49:19.546Z,46.30
2018-04-07T16:50:28.387Z,46.30
2018-04-07T16:51:37.851Z,46.60
2018-04-07T16:52:46.570Z,46.60
2018-04-07T16:53:55.453Z,46.10
2018-04-07T16:55:04.347Z,46.40
2018-04-07T16:56:13.115Z,46.50
2018-04-07T16:57:22.878Z,46.50
2018-04-07T16:58:31.637Z,46.50
2018-04-07T16:59:40.394Z,46.60
2018-04-07T17:00:49.114Z,46.50
2018-04-07T17:01:57.983Z,46.90
2018-04-07T17:03:06.804Z,46.50
2018-04-07T17:04:15.539Z,46.60
2018-04-07T17:05:24.329Z,46.50
2018-04-07T17:06:33.218Z,46.60
2018-04-07T17:07:42.888Z,46.60
2018-04-07T17:08:51.722Z,46.40
2018-04-07T17:10:02.237Z,47.60
2018-04-07T17:11:11.104Z,47.10
2018-04-07T17:12:20.015Z,47.40
2018-04-07T17:13:28.961Z,48.10
2018-04-07T17:14:37.952Z,48.00
2018-04-07T17:15:46.712Z,48.00
2018-04-07T17:16:55.503Z,48.90
2018-04-07T17:18:04.445Z,48.60
2018-04-07T17:19:13.765Z,48.70
2018-04-07T17:20:22.474Z,48.70
2018-04-07T17:21:31.329Z,48.60
2018-04-07T17:22:40.301Z,48.50
2018-04-07T17:23:48.972Z,48.80
2018-04-07T17:24:57.739Z,49.00
2018-04-07T17:26:07.462Z,48.40
2018-04-07T17:27:16.406Z,48.40
2018-04-07T17:28:25.081Z,47.70
2018-04-07T17:29:33.925Z,48.20
2018-04-07T17:30:42.871Z,48.40
2018-04-07T17:31:51.516Z,48.20
2018-04-07T17:33:00.324Z,48.10
2018-04-07T17:34:10.603Z,47.80
2018-04-07T17:35:19.534Z,47.80
2018-04-07T17:36:28.533Z,47.60
2018-04-07T17:37:37.250Z,47.90
2018-04-07T17:38:46.045Z,48.30
2018-04-07T17:39:55.412Z,47.50
2018-04-07T17:41:04.229Z,47.50
2018-04-07T17:42:12.990Z,47.60
2018-04-07T17:43:21.801Z,47.50
2018-04-07T17:44:30.640Z,47.40
2018-04-07T17:45:39.452Z,47.60
2018-04-07T17:46:48.470Z,47.30
2018-04-07T17:47:57.371Z,47.50
2018-04-07T17:49:06.454Z,47.90
2018-04-07T17:50:15.829Z,48.60
2018-04-07T17:51:24.584Z,48.60
2018-04-07T17:52:33.445Z,48.50
2018-04-07T17:53:42.433Z,48.70
2018-04-07T17:54:51.227Z,49.10
2018-04-07T17:56:00.121Z,48.90
2018-04-07T17:57:08.745Z,49.20
2018-04-07T17:58:17.602Z,49.40
2018-04-07T17:59:26.405Z,50.00
2018-04-07T18:00:35.418Z,50.20
2018-04-07T18:01:44.226Z,49.70
2018-04-07T18:02:52.926Z,49.90
2018-04-07T18:04:01.958Z,49.80
2018-04-07T18:05:10.818Z,49.80
2018-04-07T18:06:20.402Z,50.50
2018-04-07T18:07:29.382Z,50.40
2018-04-07T18:08:38.033Z,50.00
2018-04-07T18:09:46.730Z,50.60
2018-04-07T18:10:55.552Z,50.20
2018-04-07T18:12:05.080Z,49.60
2018-04-07T18:13:13.881Z,49.60
2018-04-07T18:14:22.593Z,50.00
2018-04-07T18:15:31.472Z,50.00
2018-04-07T18:16:40.368Z,50.20
2018-04-07T18:17:49.099Z,49.80
2018-04-07T18:18:57.901Z,49.50
2018-04-07T18:20:06.987Z,49.60
2018-04-07T18:21:16.454Z,50.10
2018-04-07T18:22:25.191Z,49.60
2018-04-07T18:23:35.006Z,50.20
2018-04-07T18:24:43.765Z,49.40
2018-04-07T18:25:53.010Z,49.40
2018-04-07T18:27:01.698Z,49.40
2018-04-07T18:28:11.186Z,49.30
2018-04-07T18:29:19.986Z,49.30
2018-04-07T18:30:28.802Z,49.60
2018-04-07T18:31:38.393Z,49.40
2018-04-07T18:32:47.272Z,49.30
2018-04-07T18:33:56.771Z,49.90
2018-04-07T18:35:05.732Z,50.00
2018-04-07T18:36:14.487Z,50.00
2018-04-07T18:37:23.926Z,50.20
2018-04-07T18:38:32.886Z,50.10
2018-04-07T18:39:41.712Z,50.30
2018-04-07T18:40:50.749Z,50.20
2018-04-07T18:41:59.461Z,50.30
2018-04-07T18:43:09.796Z,50.60
2018-04-07T18:44:18.648Z,50.50
2018-04-07T18:45:27.566Z,50.60
2018-04-07T18:46:37.194Z,51.50
2018-04-07T18:47:45.797Z,51.50
2018-04-07T18:48:54.616Z,50.70
2018-04-07T18:50:03.292Z,51.20
2018-04-07T18:51:12.200Z,51.00
2018-04-07T18:52:21.058Z,50.70
2018-04-07T18:53:30.632Z,50.10
2018-04-07T18:54:39.745Z,50.10
2018-04-07T18:55:48.602Z,50.90
2018-04-07T18:56:58.080Z,50.60
2018-04-07T18:58:07.007Z,50.50
2018-04-07T18:59:15.934Z,51.20
2018-04-07T19:00:24.862Z,51.20
2018-04-07T19:01:33.693Z,50.80
2018-04-07T19:02:42.424Z,51.80
2018-04-07T19:03:51.998Z,51.70
2018-04-07T19:05:00.807Z,51.60
2018-04-07T19:06:10.448Z,51.00
2018-04-07T19:07:19.356Z,51.00
2018-04-07T19:08:28.271Z,51.40
2018-04-07T19:09:37.898Z,50.80
2018-04-07T19:10:46.712Z,51.30
2018-04-07T19:11:55.423Z,51.00
2018-04-07T19:13:04.315Z,51.30
2018-04-07T19:14:13.051Z,51.50
2018-04-07T19:15:21.777Z,51.50
2018-04-07T19:16:30.402Z,51.80
2018-04-07T19:17:39.196Z,51.70
2018-04-07T19:18:48.151Z,51.90
2018-04-07T19:19:57.020Z,51.90
2018-04-07T19:21:05.883Z,51.80
2018-04-07T19:22:15.279Z,52.20
2018-04-07T19:23:24.747Z,51.70
2018-04-07T19:24:33.708Z,51.70
2018-04-07T19:25:43.168Z,51.90
2018-04-07T19:26:52.047Z,51.90
2018-04-07T19:28:00.890Z,52.00
2018-04-07T19:29:09.674Z,51.70
2018-04-07T19:30:18.330Z,51.70
2018-04-07T19:31:27.201Z,51.60
2018-04-07T19:32:36.001Z,51.80
2018-04-07T19:33:44.767Z,51.90
2018-04-07T19:34:53.478Z,51.90
2018-04-07T19:36:02.394Z,52.00
2018-04-07T19:37:11.870Z,53.10
2018-04-07T19:38:20.686Z,52.80
2018-04-07T19:39:29.375Z,52.70
2018-04-07T19:40:38.937Z,53.50
2018-04-07T19:41:47.632Z,53.50
2018-04-07T19:42:56.516Z,53.70
2018-04-07T19:44:05.253Z,53.60
2018-04-07T19:45:14.053Z,53.80
2018-04-07T19:46:23.008Z,54.20
2018-04-07T19:47:31.820Z,54.00
2018-04-07T19:48:41.452Z,54.50
2018-04-07T19:49:50.330Z,54.40
2018-04-07T19:50:59.108Z,54.40
2018-04-07T19:52:09.022Z,54.50
2018-04-07T19:53:18.578Z,55.10
2018-04-07T19:54:27.325Z,55.10
2018-04-07T19:55:36.092Z,54.50
2018-04-07T19:56:45.541Z,54.80
2018-04-07T19:57:55.100Z,54.80
2018-04-07T19:59:03.867Z,54.80
2018-04-07T20:00:12.598Z,55.90
2018-04-07T20:01:22.729Z,55.50
2018-04-07T20:02:31.825Z,55.50
2018-04-07T20:03:41.313Z,55.50
2018-04-07T20:04:50.862Z,55.80
2018-04-07T20:05:59.719Z,55.40
2018-04-07T20:07:08.410Z,55.90
2018-04-07T20:08:17.976Z,55.30
2018-04-07T20:09:26.593Z,55.30
2018-04-07T20:10:35.466Z,56.00
2018-04-07T20:11:45.118Z,55.50
2018-04-07T20:12:53.846Z,55.50
2018-04-07T20:14:02.826Z,55.30
2018-04-07T20:15:11.475Z,55.10
2018-04-07T20:16:20.488Z,55.30
2018-04-07T20:17:29.266Z,55.50
2018-04-07T20:18:38.388Z,55.60
2018-04-07T20:19:47.376Z,55.70
2018-04-07T20:20:57.076Z,55.90
2018-04-07T20:22:06.421Z,55.80
2018-04-07T20:23:16.145Z,56.10
2018-04-07T20:24:24.811Z,56.00
2018-04-07T20:25:34.515Z,56.30
2018-04-07T20:26:44.177Z,56.60
2018-04-07T20:27:52.991Z,56.60
2018-04-07T20:29:01.696Z,56.80
2018-04-07T20:30:10.341Z,57.00
2018-04-07T20:31:19.914Z,57.20
2018-04-07T20:32:29.046Z,57.40
2018-04-07T20:33:38.055Z,57.70
2018-04-07T20:34:46.958Z,57.40
2018-04-07T20:35:56.015Z,58.00
2018-04-07T20:37:05.130Z,57.30
2018-04-07T20:38:14.781Z,57.70
2018-04-07T20:39:23.849Z,57.70
2018-04-07T20:40:33.523Z,58.10
2018-04-07T20:41:42.440Z,58.10
2018-04-07T20:42:51.283Z,58.10
2018-04-07T20:44:00.981Z,58.40
2018-04-07T20:45:10.709Z,58.30
2018-04-07T20:46:19.625Z,58.30
2018-04-07T20:47:28.452Z,58.20
2018-04-07T20:48:38.110Z,58.30
2018-04-07T20:49:46.918Z,58.40
2018-04-07T20:50:55.686Z,58.10
2018-04-07T20:52:05.288Z,57.80
2018-04-07T20:53:14.082Z,57.80
2018-04-07T20:54:23.567Z,58.40
2018-04-07T20:55:32.480Z,58.40
2018-04-07T20:56:41.202Z,58.40
2018-04-07T20:57:50.853Z,59.10
2018-04-07T20:58:59.658Z,58.90
2018-04-07T21:00:08.799Z,58.90
2018-04-07T21:01:17.697Z,59.00
2018-04-07T21:02:26.458Z,59.30
2018-04-07T21:03:36.301Z,59.60
2018-04-07T21:04:45.942Z,59.80
2018-04-07T21:05:54.662Z,59.80
2018-04-07T21:07:03.954Z,59.80
2018-04-07T21:08:12.767Z,59.80
2018-04-07T21:09:21.713Z,60.10
2018-04-07T21:10:30.437Z,60.20
2018-04-07T21:11:39.389Z,60.70
2018-04-07T21:12:48.779Z,60.70
2018-04-07T21:13:57.642Z,60.70
2018-04-07T21:15:06.708Z,60.50
2018-04-07T21:16:15.406Z,60.70
2018-04-07T21:17:24.138Z,61.20
2018-04-07T21:18:33.681Z,61.40
2018-04-07T21:19:42.643Z,61.90
2018-04-07T21:20:51.878Z,61.40
2018-04-07T21:22:00.749Z,61.10
2018-04-07T21:23:10.505Z,60.40
2018-04-07T21:24:19.374Z,60.30
2018-04-07T21:25:28.518Z,60.30
2018-04-07T21:26:38.016Z,60.90
2018-04-07T21:27:46.607Z,60.80
2018-04-07T21:28:56.501Z,61.40
2018-04-07T21:30:06.380Z,61.90
2018-04-07T21:31:15.244Z,62.50
2018-04-07T21:32:24.431Z,62.90
2018-04-07T21:33:33.231Z,63.10
2018-04-07T21:34:42.306Z,63.50
2018-04-07T21:35:51.009Z,63.60
2018-04-07T21:37:00.133Z,63.80
2018-04-07T21:38:09.301Z,63.20
2018-04-07T21:39:18.267Z,63.40
2018-04-07T21:40:27.232Z,63.00
2018-04-07T21:41:35.892Z,63.00
2018-04-07T21:42:47.221Z,63.10
2018-04-07T21:44:00.053Z,62.60
2018-04-07T21:46:36.733Z,61.50
2018-04-07T21:47:46.692Z,61.90
2018-04-07T21:48:59.096Z,61.40
2018-04-07T21:50:31.871Z,62.00
2018-04-07T21:55:46.096Z,61.50
2018-04-07T21:57:18.396Z,61.20
2018-04-07T21:58:31.954Z,61.10
2018-04-07T22:01:59.187Z,60.50
2018-04-07T22:17:47.719Z,61.10
2018-04-07T22:18:59.094Z,59.80
2018-04-07T22:20:09.749Z,60.10
2018-04-07T22:21:19.178Z,59.90
2018-04-07T22:22:29.733Z,60.20
2018-04-07T22:23:38.950Z,60.50
2018-04-07T22:24:48.178Z,59.30
2018-04-07T22:25:58.330Z,60.10
2018-04-07T22:27:09.798Z,60.00
2018-04-07T22:28:22.502Z,59.90
2018-04-07T22:29:41.660Z,59.90
2018-04-07T22:30:53.237Z,60.20
2018-04-07T22:32:02.907Z,60.00
2018-04-07T22:33:12.708Z,60.00
2018-04-07T22:34:22.454Z,60.20
2018-04-07T22:35:33.366Z,60.30
2018-04-07T22:36:43.099Z,60.20
2018-04-07T22:37:52.739Z,60.40
2018-04-07T22:39:03.904Z,60.30
2018-04-07T22:40:21.256Z,60.50
2018-04-07T22:43:05.392Z,60.50
2018-04-07T22:44:40.432Z,60.10
2018-04-07T22:45:52.883Z,60.40
2018-04-07T22:47:07.992Z,60.70
